ウィーン の空港の天気 - METARとTAF

ウィーン国際空港 ( LOWW / VIE ) - オーストリア ウィーン
飛行場実況気象(Metar)
観測時間09/23 14:20 CEST (09/23 12:20 UTC)
風向・風速北西 4m/s
視程10km以上
天気現象
少しの雲 雲底高度 850m
全天の8割程度の雲 雲底高度 3050m
気温16℃
湿度68%
気圧1020hPa
METARLOWW 231220Z 32007KT 9999 FEW028 BKN100 16/10 Q1020 NOSIG
過去の天気等 Google飛行場航空写真 Wunderground天気予報

過去48時間のMETAR

飛行場予報(TAF)
発表時間: 9/23 13:15 CEST (9/23 11:15 UTC)
予報対象時間: 23日14時 CEST ~ 24日20時 CEST
風向・風速北北西 6m/s
視程10km以上
全天の4割程度の雲 雲底高度 1,370m
全天の8割程度の雲 雲底高度 3,050m
24日1時 CEST ~ 24日4時 CEST に徐々に
全天の8割程度の雲 雲底高度 910m
TAF LOWW 231115Z 2312/2418 34012KT 9999 SCT045 BKN100 TX16/2312Z TN12/2418Z
BECMG 2323/2402 BKN030